Terminal Aerodrome Forecast
Issued by NWS

Home | Current Version | Previous Version | Text Only | Print | Product List | Glossary On
Versions: 1 2 3 4 5 6 7 8 9 10 11 12 13 14 15 16 17
000
FTUS43 KFGF 260520
TAFDVL
TAF
KDVL 260520Z 2606/2706 03005KT 1SM -SN BKN005 OVC012
     FM260700 35005KT P6SM BKN015
      TEMPO 2607/2608 2SM -SN OVC005
     FM260900 33006KT P6SM BKN070
     FM261500 27006KT P6SM BKN120=

USA.gov is the U.S. government's official web portal to all federal, state and local government web resources and services.